New Kent, Virginia
Current Conditions -  °F | °C
As of 7:15 PM on Friday 21 Nov 2014 (Local Time) from KW96 Reporting Station
Clear Clear  
Wind Chill: 28°   Ceiling: Unl
Heat Index: 28°   Visibility: 10mi
Dew Point: 16°   Wind: 0mph
Humidity: 62%   Direction: NA
Pressure: 30.54"   Gusts: NA
Location:  37.52°N, 76.98°W
Report Text: KW96 220015Z AUTO 00000KT 10SM CLR M02/M09 A3054 RMK AO1 T10251089
Loading
Personal Weather Stations






























Interactive Weather Map New forecast layout! Learn more

10-Day Weather Forecast

Advertisements
Track Severe Weather on mobile